Fri, 01 Jul 2022 11:46:52 UTC | login

Information for RPM brotli-1.0.9-6.el9.s390x.rpm

ID287590
Namebrotli
Version1.0.9
Release6.el9
Epoch
Archs390x
SummaryLossless compression algorithm
DescriptionBrotli is a generic-purpose lossless compression algorithm that compresses data using a combination of a modern variant of the LZ77 algorithm, Huffman coding and 2nd order context modeling, with a compression ratio comparable to the best currently available general-purpose compression methods. It is similar in speed with deflate but offers more dense compression.
Build Time2021-08-09 19:40:21 GMT
Size322,930
a4b336f1b63327aaaf79dc060c08e5c5
LicenseMIT
Buildrootc9s-build-side-264-stack-gate-157152-24760
Provides
brotli = 1.0.9-6.el9
brotli(s390-64) = 1.0.9-6.el9
Obsoletes No Obsoletes
Conflicts No Conflicts
Requires
libbrotli(s390-64) = 1.0.9-6.el9
libc.so.6()(64bit)
libc.so.6(GLIBC_2.2)(64bit)
libc.so.6(GLIBC_2.3.4)(64bit)
libc.so.6(GLIBC_2.33)(64bit)
libc.so.6(GLIBC_2.34)(64bit)
libc.so.6(GLIBC_2.4)(64bit)
libm.so.6()(64bit)
libm.so.6(GLIBC_2.29)(64bit)
rpmlib(CompressedFileNames) <= 3.0.4-1
rpmlib(FileDigests) <= 4.6.0-1
rpmlib(PayloadFilesHavePrefix) <= 4.0-1
rpmlib(PayloadIsZstd) <= 5.4.18-1
rtld(GNU_HASH)
Recommends No Recommends
Suggests No Suggests
Supplements No Supplements
Enhances No Enhances
Files
1 through 4 of 4
Name ascending sort Size
/usr/bin/brotli800,952
/usr/lib/.build-id0
/usr/lib/.build-id/930
/usr/lib/.build-id/93/7e81e8e32a6c589429225795b29efa801b9f6826
Component of
Page:
1 through 50 of 2515 >>>
Buildroot descending sort Created State
c9s-build-285965-111146 2022-07-01 09:36:11 expired
c9s-build-285958-111146 2022-07-01 09:25:35 expired
c9s-build-285953-111146 2022-07-01 09:14:03 expired
c9s-build-285948-111146 2022-07-01 09:00:02 expired
c9s-build-285878-110957 2022-06-30 15:24:49 expired
c9s-build-285854-110957 2022-06-30 14:37:27 expired
c9s-build-285849-110957 2022-06-30 13:27:23 expired
c9s-build-285832-110898 2022-06-30 12:55:37 expired
c9s-build-285818-110835 2022-06-30 12:17:41 expired
c9s-build-285721-110705 2022-06-30 07:22:45 expired
c9s-build-285679-110705 2022-06-29 23:53:06 expired
c9s-build-285647-110522 2022-06-29 17:01:54 expired
c9s-build-285640-110522 2022-06-29 16:14:55 expired
c9s-build-285633-110392 2022-06-29 15:40:34 expired
c9s-build-285468-109715 2022-06-28 14:10:12 expired
c9s-build-285424-109654 2022-06-28 11:23:07 expired
c9s-build-285363-109340 2022-06-27 23:39:45 expired
c9s-build-285358-109340 2022-06-27 23:34:19 expired
c9s-build-285337-109279 2022-06-27 20:04:32 expired
c9s-build-285295-109096 2022-06-27 14:22:38 expired
c9s-build-285156-108702 2022-06-24 22:40:13 expired
c9s-build-285118-108702 2022-06-24 16:48:34 expired
c9s-build-285097-108702 2022-06-24 15:33:55 expired
c9s-build-284736-107647 2022-06-22 19:35:25 expired
c9s-build-284664-107404 2022-06-22 14:32:44 expired
c9s-build-284611-107342 2022-06-22 13:02:10 expired
c9s-build-284566-107160 2022-06-22 10:58:54 expired
c9s-build-284537-107160 2022-06-22 09:33:13 expired
c9s-build-284512-107100 2022-06-22 08:28:42 expired
c9s-build-284452-106970 2022-06-21 19:52:01 expired
c9s-build-284441-106970 2022-06-21 18:55:14 expired
c9s-build-284436-106790 2022-06-21 16:04:02 expired
c9s-build-284391-106568 2022-06-21 13:24:42 expired
c9s-build-284371-106568 2022-06-21 12:24:16 expired
c9s-build-284204-105966 2022-06-20 12:27:57 expired
c9s-build-284200-105966 2022-06-20 12:27:41 expired
c9s-build-284046-105186 2022-06-17 14:03:53 expired
c9s-build-284038-105186 2022-06-17 14:02:56 expired
c9s-build-283949-104831 2022-06-16 16:46:47 expired
c9s-build-283935-104831 2022-06-16 15:26:49 expired
c9s-build-283759-104126 2022-06-15 16:08:51 expired
c9s-build-283749-104067 2022-06-15 14:38:30 expired
c9s-build-283740-104013 2022-06-15 14:01:10 expired
c9s-build-283723-104013 2022-06-15 13:21:55 expired
c9s-build-283656-104013 2022-06-15 10:20:25 expired
c9s-build-283563-103437 2022-06-14 19:40:42 expired
c9s-build-283436-103265 2022-06-14 13:02:56 expired
c9s-build-283424-103265 2022-06-14 12:53:04 expired
c9s-build-283406-103208 2022-06-14 10:29:31 expired
c9s-build-283386-103037 2022-06-14 08:14:26 expired